Time;durP1;ratioP1;P1;durP2;ratioP2;P2;SDS_P1;SDS_P2;PMS_P1;PMS_P2;Temp;Humidity;BMP_temperature;BMP_pressure;BME280_temperature;BME280_humidity;BME280_pressure;Samples;Min_cycle;Max_cycle;Signal;HPM_P1;HPM_P2
2023/01/26 00:00:54;;;;;;;28.97;16.40;;;2.50;79.70;;;;;;5051943;28;20044;-80
2023/01/26 00:03:21;;;;;;;29.97;15.90;;;2.50;79.70;;;;;;5035486;28;20044;-80
2023/01/26 00:05:47;;;;;;;28.50;16.07;;;2.50;79.70;;;;;;5051956;28;20041;-80
2023/01/26 00:08:13;;;;;;;27.33;15.60;;;2.50;79.70;;;;;;5035535;28;20147;-80
2023/01/26 00:10:40;;;;;;;27.33;15.60;;;2.60;79.70;;;;;;5051556;28;20473;-76
2023/01/26 00:13:09;;;;;;;29.20;16.33;;;2.60;79.80;;;;;;5051327;28;20052;-77
2023/01/26 00:15:35;;;;;;;28.50;15.47;;;2.50;79.70;;;;;;5051218;28;20048;-76
2023/01/26 00:18:02;;;;;;;28.80;15.70;;;2.60;79.80;;;;;;5018072;28;20040;-76
2023/01/26 00:20:28;;;;;;;26.23;14.57;;;2.60;79.70;;;;;;5034453;28;20044;-76
2023/01/26 00:22:54;;;;;;;27.90;14.98;;;2.60;79.80;;;;;;5014747;28;20037;-76
2023/01/26 00:25:20;;;;;;;26.37;14.83;;;2.60;79.80;;;;;;5023690;28;20048;-76
2023/01/26 00:27:46;;;;;;;29.60;16.60;;;2.60;79.80;;;;;;5047305;28;20420;-76
2023/01/26 00:30:11;;;;;;;28.53;15.90;;;2.60;79.80;;;;;;5015492;28;20042;-76
2023/01/26 00:32:37;;;;;;;30.10;16.60;;;2.60;79.80;;;;;;5040174;28;20103;-80
2023/01/26 00:35:04;;;;;;;28.60;15.93;;;2.60;80.20;;;;;;5051508;28;20076;-80
2023/01/26 00:37:30;;;;;;;28.53;16.00;;;2.60;79.80;;;;;;5051654;28;20341;-80
2023/01/26 00:39:56;;;;;;;30.27;15.90;;;2.60;79.80;;;;;;5051775;28;20041;-80
2023/01/26 00:42:23;;;;;;;27.53;15.60;;;2.60;79.80;;;;;;5034406;28;20063;-80
2023/01/26 00:44:49;;;;;;;29.15;15.23;;;2.60;79.80;;;;;;5034888;28;20045;-80
2023/01/26 00:47:16;;;;;;;28.07;15.60;;;2.60;79.80;;;;;;5032427;28;20029;-81
2023/01/26 00:49:43;;;;;;;27.95;15.30;;;2.80;79.90;;;;;;5051892;28;20392;-80
2023/01/26 00:52:09;;;;;;;29.13;15.52;;;2.70;79.80;;;;;;5051373;28;20080;-80
2023/01/26 00:54:35;;;;;;;30.63;16.03;;;2.70;79.80;;;;;;5051469;28;20047;-81
2023/01/26 00:57:00;;;;;;;29.33;15.73;;;2.60;79.70;;;;;;5035252;28;20037;-80
2023/01/26 00:59:26;;;;;;;28.20;15.15;;;2.60;79.70;;;;;;5051424;28;20378;-81
2023/01/26 01:01:53;;;;;;;27.43;14.93;;;2.70;79.70;;;;;;5053619;28;20033;-80
2023/01/26 01:04:19;;;;;;;29.23;15.20;;;2.90;79.80;;;;;;5055002;28;20047;-80
2023/01/26 01:06:45;;;;;;;27.60;15.13;;;2.70;79.70;;;;;;5038588;28;20480;-81
2023/01/26 01:09:11;;;;;;;28.40;15.87;;;2.60;79.70;;;;;;5038623;28;20130;-81
2023/01/26 01:11:37;;;;;;;28.87;15.40;;;2.60;79.70;;;;;;5038629;28;20048;-80
2023/01/26 01:14:03;;;;;;;28.05;15.40;;;2.70;79.80;;;;;;5054610;28;20443;-80
2023/01/26 01:16:29;;;;;;;28.35;14.43;;;2.70;79.80;;;;;;5021724;28;20045;-80
2023/01/26 01:18:55;;;;;;;29.38;16.10;;;2.70;79.80;;;;;;5038409;28;20036;-81
2023/01/26 01:21:22;;;;;;;30.55;16.75;;;2.70;79.90;;;;;;5018726;28;20034;-81
2023/01/26 01:23:48;;;;;;;29.25;14.93;;;3.10;80.10;;;;;;5041757;28;20037;-80
2023/01/26 01:26:15;;;;;;;29.60;15.75;;;2.70;79.80;;;;;;5038375;28;20079;-80
2023/01/26 01:28:42;;;;;;;29.40;15.73;;;2.70;79.80;;;;;;5055113;28;20041;-80
2023/01/26 01:31:11;;;;;;;29.77;15.63;;;2.70;79.80;;;;;;5054478;28;20044;-80
2023/01/26 01:33:38;;;;;;;30.85;17.55;;;2.70;79.80;;;;;;5038056;28;20040;-80
2023/01/26 01:36:06;;;;;;;30.73;16.27;;;2.70;79.80;;;;;;5038040;28;20044;-80
2023/01/26 01:38:33;;;;;;;32.10;16.20;;;2.70;79.80;;;;;;5038155;28;20025;-80
2023/01/26 01:40:59;;;;;;;30.77;15.15;;;2.70;79.80;;;;;;5038112;28;20158;-80
2023/01/26 01:43:26;;;;;;;29.47;15.20;;;2.70;79.70;;;;;;5054596;28;20047;-80
2023/01/26 01:45:52;;;;;;;28.67;15.63;;;2.70;79.80;;;;;;5054278;28;20036;-80
2023/01/26 01:48:44;;;;;;;26.45;14.77;;;2.70;79.80;;;;;;5054567;28;20404;-80
2023/01/26 01:51:18;;;;;;;33.53;15.75;;;2.70;79.90;;;;;;5036438;28;20047;-80
2023/01/26 01:53:49;;;;;;;29.30;15.50;;;2.90;80.10;;;;;;5054239;28;20040;-80
2023/01/26 01:56:21;;;;;;;37.00;18.63;;;2.70;79.90;;;;;;5037655;28;20041;-80
2023/01/26 01:58:51;;;;;;;29.83;16.42;;;2.70;79.90;;;;;;5037752;28;20045;-80
2023/01/26 02:01:17;;;;;;;31.40;16.23;;;2.70;80.30;;;;;;5054021;28;20044;-80
2023/01/26 02:03:44;;;;;;;32.40;17.05;;;2.70;80.00;;;;;;5037283;28;20404;-80
2023/01/26 02:06:12;;;;;;;34.60;19.30;;;2.70;80.00;;;;;;5037377;28;20028;-81
2023/01/26 02:08:46;;;;;;;30.92;15.82;;;2.70;80.00;;;;;;5053997;28;20072;-80
2023/01/26 02:11:27;;;;;;;29.98;15.65;;;2.70;80.00;;;;;;5053921;28;20048;-80
2023/01/26 02:13:57;;;;;;;28.77;15.52;;;2.80;80.10;;;;;;5037325;28;20057;-80
2023/01/26 02:16:22;;;;;;;31.13;16.77;;;2.90;80.20;;;;;;5053849;28;20045;-80
2023/01/26 02:18:48;;;;;;;30.37;16.57;;;2.90;80.10;;;;;;5053878;28;20045;-80
2023/01/26 02:21:20;;;;;;;33.00;16.27;;;2.70;80.00;;;;;;5037947;28;20048;-80
2023/01/26 02:24:05;;;;;;;31.97;16.70;;;2.70;80.00;;;;;;5053811;28;20041;-80
2023/01/26 02:26:33;;;;;;;34.95;16.85;;;2.80;80.10;;;;;;5053490;28;20037;-80
2023/01/26 02:29:00;;;;;;;29.87;15.97;;;2.80;80.10;;;;;;5053595;28;20041;-80
2023/01/26 02:31:27;;;;;;;29.93;16.73;;;2.80;80.10;;;;;;5053770;28;20440;-80
2023/01/26 02:33:52;;;;;;;36.63;17.93;;;2.80;80.10;;;;;;5037127;28;20045;-80
2023/01/26 02:36:23;;;;;;;31.73;16.13;;;2.80;80.10;;;;;;5036972;28;20366;-80
2023/01/26 02:39:14;;;;;;;31.02;16.25;;;2.80;80.10;;;;;;5036243;28;20044;-76
2023/01/26 02:44:25;;;;;;;;;;;2.80;80.10;;;;;;5053114;28;20048;-76
2023/01/26 02:46:52;;;;;;;28.98;15.68;;;2.70;79.80;;;;;;5035535;28;19917;-76
2023/01/26 02:52:06;;;;;;;26.58;14.75;;;2.70;80.00;;;;;;5038265;28;20106;-76
2023/01/26 02:57:16;;;;;;;26.80;15.30;;;2.70;80.00;;;;;;5037801;28;20045;-76
2023/01/26 02:59:41;;;;;;;32.73;17.37;;;2.70;80.10;;;;;;5003364;28;20044;-76
2023/01/26 03:02:07;;;;;;;26.20;14.17;;;2.90;80.20;;;;;;5051710;28;20037;-76
2023/01/26 03:04:33;;;;;;;25.73;15.00;;;2.90;80.20;;;;;;5052421;28;20396;-76
2023/01/26 03:06:58;;;;;;;27.40;14.95;;;2.70;80.20;;;;;;5052199;28;20048;-76
2023/01/26 03:09:24;;;;;;;26.90;15.18;;;2.70;80.30;;;;;;5035776;28;20110;-76
2023/01/26 03:11:50;;;;;;;29.57;15.83;;;2.70;80.30;;;;;;5015377;28;20382;-75
2023/01/26 03:14:16;;;;;;;29.08;14.93;;;2.70;80.20;;;;;;5043963;28;20049;-75
2023/01/26 03:16:42;;;;;;;24.77;13.95;;;2.90;80.30;;;;;;5035585;28;20534;-75
2023/01/26 03:27:27;;;;;;;27.70;14.48;;;2.70;80.40;;;;;;5050846;28;20056;-76
2023/01/26 03:29:55;;;;;;;26.88;13.90;;;2.80;80.50;;;;;;5051501;28;20123;-76
2023/01/26 03:32:21;;;;;;;27.40;15.00;;;2.80;80.50;;;;;;5034860;28;20431;-76
2023/01/26 03:34:46;;;;;;;24.83;14.05;;;2.80;80.50;;;;;;5015822;28;20393;-76
2023/01/26 03:37:12;;;;;;;27.75;14.80;;;2.80;80.50;;;;;;5033066;28;20041;-76
2023/01/26 03:56:23;;;;;;;27.40;14.13;;;2.80;80.70;;;;;;5051267;28;20299;-75
2023/01/26 03:58:54;;;;;;;29.95;16.40;;;3.00;80.90;;;;;;5051599;28;20037;-75
2023/01/26 04:01:26;;;;;;;32.28;16.92;;;2.80;80.70;;;;;;5051324;28;20438;-75
2023/01/26 04:09:25;;;;;;;26.05;14.07;;;2.80;80.70;;;;;;5051496;28;20045;-76
2023/01/26 04:11:51;;;;;;;26.63;14.83;;;2.80;80.70;;;;;;5034557;28;20037;-75
2023/01/26 04:22:42;;;;;;;25.85;15.00;;;2.80;80.80;;;;;;5050889;28;20045;-75
2023/01/26 04:25:10;;;;;;;29.48;15.27;;;3.00;80.90;;;;;;5051635;28;20095;-76
2023/01/26 04:27:35;;;;;;;27.73;15.30;;;2.80;80.80;;;;;;5050554;28;20048;-75
2023/01/26 04:30:03;;;;;;;31.00;16.43;;;2.90;80.80;;;;;;5034146;28;20045;-75
2023/01/26 04:32:29;;;;;;;29.58;16.13;;;2.90;80.80;;;;;;5034909;28;20045;-75
2023/01/26 04:34:55;;;;;;;28.95;15.65;;;2.90;80.80;;;;;;5049118;28;20041;-75
2023/01/26 04:37:21;;;;;;;29.98;16.10;;;2.90;80.80;;;;;;5052278;28;20106;-75
2023/01/26 04:39:46;;;;;;;27.17;15.02;;;2.90;80.80;;;;;;5038725;28;20037;-75
2023/01/26 04:42:12;;;;;;;28.17;15.30;;;2.90;80.80;;;;;;5054701;28;20503;-75
2023/01/26 04:44:38;;;;;;;29.05;16.35;;;3.00;80.90;;;;;;5055177;28;20049;-75
2023/01/26 04:47:04;;;;;;;32.70;16.27;;;2.90;80.80;;;;;;5037997;28;20403;-75
2023/01/26 04:49:29;;;;;;;27.20;14.98;;;2.90;80.80;;;;;;5038515;28;20079;-75
2023/01/26 04:51:55;;;;;;;27.42;14.77;;;2.90;80.90;;;;;;5054051;28;20419;-75
2023/01/26 04:54:21;;;;;;;28.65;15.73;;;2.90;80.90;;;;;;5038331;28;20041;-75
2023/01/26 04:56:46;;;;;;;26.87;15.67;;;2.90;80.90;;;;;;5054617;28;20045;-76
2023/01/26 04:59:13;;;;;;;29.17;15.00;;;2.90;80.90;;;;;;5021800;28;20045;-75
2023/01/26 05:01:39;;;;;;;32.55;18.73;;;3.00;81.00;;;;;;5054264;28;20530;-75
2023/01/26 05:04:05;;;;;;;28.93;15.50;;;2.90;80.90;;;;;;5038286;28;20045;-75
2023/01/26 05:06:31;;;;;;;32.90;17.77;;;3.00;80.90;;;;;;5054551;28;20040;-75
2023/01/26 05:08:57;;;;;;;32.70;17.27;;;3.00;80.90;;;;;;5054099;28;20044;-76
2023/01/26 05:11:23;;;;;;;29.13;15.60;;;3.00;80.90;;;;;;5054219;28;20059;-76
2023/01/26 05:13:49;;;;;;;27.63;14.38;;;3.00;80.80;;;;;;5037682;28;20140;-76
2023/01/26 05:16:16;;;;;;;31.42;17.05;;;3.00;80.80;;;;;;5018267;28;20133;-75
2023/01/26 05:18:42;;;;;;;28.13;16.35;;;3.10;80.90;;;;;;5043559;28;20045;-76
2023/01/26 05:21:09;;;;;;;29.83;16.35;;;3.00;80.80;;;;;;5054438;28;20055;-75
2023/01/26 05:23:35;;;;;;;30.30;16.73;;;3.00;80.90;;;;;;5037677;28;20037;-76
2023/01/26 05:26:01;;;;;;;33.97;18.05;;;3.00;80.80;;;;;;5037343;28;20037;-76
2023/01/26 05:28:27;;;;;;;31.55;17.52;;;3.00;80.90;;;;;;5053128;28;20107;-75
2023/01/26 05:30:52;;;;;;;31.80;16.73;;;3.00;80.80;;;;;;5037081;28;20481;-75
2023/01/26 05:33:21;;;;;;;30.55;17.23;;;3.00;80.80;;;;;;5054186;28;20033;-76
2023/01/26 05:35:51;;;;;;;28.05;15.95;;;3.00;80.80;;;;;;5053587;28;20099;-76
2023/01/26 05:38:17;;;;;;;33.67;18.23;;;3.00;80.90;;;;;;5054122;28;20036;-75
2023/01/26 05:40:43;;;;;;;30.73;16.80;;;3.50;81.20;;;;;;5037337;28;20048;-74
2023/01/26 05:43:11;;;;;;;32.20;17.00;;;3.10;81.00;;;;;;5053941;28;20033;-76
2023/01/26 05:45:38;;;;;;;29.63;16.95;;;3.10;81.00;;;;;;5052965;28;20040;-76
2023/01/26 05:48:04;;;;;;;41.53;20.23;;;3.10;81.00;;;;;;5036030;28;20056;-76
2023/01/26 05:50:29;;;;;;;36.13;18.67;;;3.10;80.90;;;;;;5052615;28;20128;-76
2023/01/26 05:52:55;;;;;;;35.90;18.92;;;3.10;80.90;;;;;;5037375;28;20124;-76
2023/01/26 05:55:21;;;;;;;31.27;16.58;;;3.10;80.90;;;;;;5036951;28;20044;-79
2023/01/26 05:57:47;;;;;;;32.25;16.77;;;3.10;80.90;;;;;;5053665;28;20045;-76
2023/01/26 06:00:13;;;;;;;34.70;19.67;;;3.20;80.90;;;;;;5036908;28;20045;-81
2023/01/26 06:02:40;;;;;;;32.38;17.13;;;3.10;80.80;;;;;;5021641;28;20383;-81
2023/01/26 06:05:06;;;;;;;34.00;17.10;;;3.10;80.90;;;;;;5017088;28;20041;-81
2023/01/26 06:07:33;;;;;;;37.60;19.25;;;3.10;80.90;;;;;;5054659;28;20036;-84
2023/01/26 06:09:59;;;;;;;35.35;18.58;;;3.60;81.20;;;;;;5038230;28;20381;-85
2023/01/26 06:12:27;;;;;;;34.17;18.00;;;3.10;81.10;;;;;;5054435;28;20067;-84
2023/01/26 06:14:52;;;;;;;36.92;18.88;;;3.10;80.90;;;;;;5002013;28;20041;-82
2023/01/26 06:17:18;;;;;;;36.40;18.92;;;3.10;81.00;;;;;;5017738;28;20047;-80
2023/01/26 06:19:44;;;;;;;35.90;18.48;;;3.10;81.00;;;;;;5001057;28;20038;-80
2023/01/26 06:22:12;;;;;;;35.60;18.92;;;3.10;81.00;;;;;;5035856;28;20032;-81
2023/01/26 06:24:37;;;;;;;34.23;17.87;;;3.20;81.00;;;;;;5036990;28;20080;-81
2023/01/26 06:27:05;;;;;;;34.00;17.95;;;3.40;81.10;;;;;;5037222;28;20064;-81
2023/01/26 06:29:32;;;;;;;34.15;18.15;;;3.60;81.20;;;;;;5037333;28;20485;-81
2023/01/26 06:31:59;;;;;;;34.63;17.60;;;3.20;81.00;;;;;;5036949;28;20440;-82
2023/01/26 06:34:25;;;;;;;34.88;17.73;;;3.20;81.00;;;;;;5036945;28;20069;-81
2023/01/26 06:36:50;;;;;;;34.15;17.95;;;3.20;81.00;;;;;;5020449;28;20503;-81
2023/01/26 06:39:16;;;;;;;36.65;20.10;;;3.20;81.00;;;;;;5050129;28;20045;-81
2023/01/26 06:41:43;;;;;;;30.48;16.52;;;3.10;80.90;;;;;;5017431;28;20045;-81
2023/01/26 06:44:10;;;;;;;32.47;17.73;;;3.10;80.90;;;;;;5033294;28;20037;-81
2023/01/26 06:46:39;;;;;;;33.05;17.33;;;3.10;80.90;;;;;;5037205;28;20138;-81
2023/01/26 06:49:05;;;;;;;32.30;16.92;;;3.10;80.90;;;;;;5020525;28;20052;-81
2023/01/26 06:51:54;;;;;;;31.23;16.08;;;3.10;80.90;;;;;;5020032;28;20404;-81
2023/01/26 06:54:20;;;;;;;34.38;16.83;;;3.10;80.80;;;;;;5036462;28;20041;-81
2023/01/26 06:56:46;;;;;;;32.15;17.63;;;3.10;80.80;;;;;;5020341;28;20037;-81
2023/01/26 06:59:13;;;;;;;33.58;16.85;;;3.40;81.00;;;;;;5019270;28;20106;-82
2023/01/26 07:01:43;;;;;;;36.15;17.77;;;3.70;81.20;;;;;;5053304;28;20080;-82
2023/01/26 07:04:09;;;;;;;35.42;17.65;;;3.10;80.80;;;;;;5052788;28;20073;-82
2023/01/26 07:06:35;;;;;;;37.15;17.85;;;3.20;80.90;;;;;;5017012;28;20100;-81
2023/01/26 07:09:00;;;;;;;32.00;16.63;;;3.10;80.90;;;;;;5046486;28;20040;-81
2023/01/26 07:11:29;;;;;;;34.58;16.60;;;3.10;80.90;;;;;;5053103;28;20032;-81
2023/01/26 07:13:55;;;;;;;35.78;17.65;;;3.20;81.00;;;;;;5036129;28;20053;-81
2023/01/26 07:16:20;;;;;;;34.63;17.52;;;2.70;80.70;;;;;;5035530;28;20522;-83
2023/01/26 07:18:49;;;;;;;37.70;18.83;;;3.10;81.00;;;;;;5035969;28;20051;-84
2023/01/26 07:21:17;;;;;;;33.08;17.75;;;3.10;81.00;;;;;;5035531;28;20542;-76
2023/01/26 07:23:44;;;;;;;34.63;17.35;;;3.60;81.40;;;;;;5052282;28;20041;-76
2023/01/26 07:26:09;;;;;;;39.45;17.83;;;3.10;81.10;;;;;;5038618;28;20033;-77
2023/01/26 07:28:35;;;;;;;34.65;18.58;;;3.10;81.10;;;;;;5035149;28;20048;-77
2023/01/26 07:31:03;;;;;;;34.22;17.77;;;3.10;81.20;;;;;;5051518;28;20400;-76
2023/01/26 07:33:30;;;;;;;37.20;18.42;;;3.10;81.30;;;;;;5052267;28;20040;-76
2023/01/26 07:35:56;;;;;;;39.08;18.05;;;3.10;81.30;;;;;;5035193;28;20044;-76
2023/01/26 07:38:22;;;;;;;32.50;16.88;;;3.10;81.40;;;;;;5035131;28;20155;-76
2023/01/26 07:40:48;;;;;;;32.22;16.75;;;3.10;81.50;;;;;;5035093;28;20048;-76
2023/01/26 07:43:15;;;;;;;33.50;16.52;;;3.10;81.60;;;;;;5034930;28;20090;-76
2023/01/26 07:45:45;;;;;;;35.70;16.15;;;3.10;81.70;;;;;;5035283;28;20033;-79
2023/01/26 07:48:10;;;;;;;32.17;16.23;;;3.10;81.80;;;;;;5035545;28;20044;-80
2023/01/26 07:50:36;;;;;;;36.33;16.00;;;3.10;81.90;;;;;;5052432;28;20045;-80
2023/01/26 07:53:02;;;;;;;34.05;15.50;;;3.10;82.10;;;;;;5052198;28;20404;-80
2023/01/26 07:55:27;;;;;;;40.42;16.85;;;3.20;82.10;;;;;;5051998;28;20124;-80
2023/01/26 07:57:53;;;;;;;32.72;14.35;;;3.10;82.10;;;;;;5019339;28;20075;-79
2023/01/26 08:00:19;;;;;;;32.05;14.30;;;3.20;82.30;;;;;;5035902;28;20554;-80
2023/01/26 08:02:49;;;;;;;37.05;15.15;;;3.20;82.40;;;;;;5035357;28;20396;-79
2023/01/26 08:05:15;;;;;;;36.27;15.00;;;3.20;82.50;;;;;;5035802;28;20132;-80
2023/01/26 08:07:41;;;;;;;32.20;14.35;;;3.20;82.60;;;;;;5052403;28;20472;-80
2023/01/26 08:10:09;;;;;;;35.63;14.40;;;3.20;82.70;;;;;;5052079;28;20044;-80
2023/01/26 08:12:35;;;;;;;31.08;14.82;;;3.20;82.70;;;;;;5019492;28;20044;-80
2023/01/26 08:15:01;;;;;;;31.30;13.80;;;3.50;83.00;;;;;;5052105;28;20083;-80
2023/01/26 08:17:32;;;;;;;33.63;15.10;;;3.30;82.90;;;;;;5036131;28;20076;-80
2023/01/26 08:19:58;;;;;;;34.13;15.23;;;3.30;82.90;;;;;;5052651;28;20102;-81
2023/01/26 08:22:24;;;;;;;32.17;14.95;;;3.30;82.90;;;;;;5036316;28;20032;-81
2023/01/26 08:24:49;;;;;;;28.13;13.73;;;3.30;82.80;;;;;;5035528;28;20033;-81
2023/01/26 08:27:16;;;;;;;30.45;12.68;;;3.30;83.20;;;;;;5018925;28;20041;-80
2023/01/26 08:29:41;;;;;;;29.73;14.02;;;3.30;82.80;;;;;;5035412;28;20037;-81
2023/01/26 08:32:08;;;;;;;29.60;13.27;;;3.30;82.80;;;;;;5052073;28;20377;-81
2023/01/26 08:34:34;;;;;;;28.27;13.68;;;3.30;82.80;;;;;;5052083;28;20037;-81
2023/01/26 08:37:02;;;;;;;33.42;14.18;;;3.30;82.80;;;;;;5018717;28;20072;-81
2023/01/26 08:39:28;;;;;;;27.05;12.02;;;3.50;82.90;;;;;;5051647;28;20454;-81
2023/01/26 08:41:54;;;;;;;27.92;12.68;;;3.30;82.80;;;;;;5051984;28;20072;-81
2023/01/26 08:44:20;;;;;;;25.25;11.77;;;3.70;83.00;;;;;;5035244;28;20040;-81
2023/01/26 08:46:45;;;;;;;31.63;13.13;;;3.30;82.80;;;;;;5035383;28;20090;-81
2023/01/26 08:49:11;;;;;;;25.92;11.77;;;3.60;83.00;;;;;;5034788;28;20127;-81
2023/01/26 08:51:37;;;;;;;27.70;10.68;;;3.30;82.90;;;;;;5034978;28;20041;-81
2023/01/26 08:54:07;;;;;;;31.10;13.52;;;3.40;83.00;;;;;;5035337;28;20041;-81
2023/01/26 08:56:33;;;;;;;39.95;15.85;;;3.40;83.20;;;;;;5035319;28;20040;-81
2023/01/26 08:58:59;;;;;;;34.90;13.82;;;3.40;83.30;;;;;;5034746;28;20045;-81
2023/01/26 09:01:25;;;;;;;30.75;11.77;;;3.50;83.50;;;;;;5034860;28;20045;-81
2023/01/26 09:03:51;;;;;;;35.33;12.98;;;3.50;83.60;;;;;;5035938;28;20033;-81
2023/01/26 09:06:18;;;;;;;33.40;12.85;;;3.50;83.70;;;;;;5051640;28;20404;-81
2023/01/26 09:08:44;;;;;;;28.77;13.10;;;3.50;84.10;;;;;;5034771;28;20481;-81
2023/01/26 09:11:11;;;;;;;29.85;12.48;;;3.60;84.50;;;;;;5034795;28;20043;-81
2023/01/26 09:13:37;;;;;;;27.80;10.98;;;3.80;85.10;;;;;;5034448;28;20049;-81
2023/01/26 09:16:05;;;;;;;28.73;10.13;;;3.90;85.50;;;;;;5051152;28;20041;-81
2023/01/26 09:18:31;;;;;;;29.60;9.23;;;4.00;85.80;;;;;;5051105;28;20523;-81
2023/01/26 09:21:03;;;;;;;29.35;9.23;;;4.20;86.00;;;;;;5051002;28;20041;-81
2023/01/26 09:23:28;;;;;;;24.20;8.65;;;4.40;86.20;;;;;;5054485;28;20037;-81
2023/01/26 09:25:54;;;;;;;25.48;8.95;;;4.50;86.20;;;;;;5021521;28;20048;-81
2023/01/26 09:28:20;;;;;;;23.70;7.45;;;4.70;86.30;;;;;;5054731;28;20095;-81
2023/01/26 09:30:45;;;;;;;24.92;8.35;;;4.90;86.40;;;;;;5038399;28;20041;-81
2023/01/26 09:33:11;;;;;;;28.23;7.07;;;5.00;86.40;;;;;;5054653;28;20044;-81
2023/01/26 09:35:37;;;;;;;24.75;7.72;;;5.20;86.40;;;;;;5021287;28;20408;-81
2023/01/26 09:38:02;;;;;;;25.83;7.75;;;5.40;86.20;;;;;;5054411;28;20059;-81
2023/01/26 09:40:42;;;;;;;23.00;7.90;;;5.60;86.10;;;;;;5021314;28;20037;-81
2023/01/26 09:43:22;;;;;;;27.40;7.57;;;5.70;86.00;;;;;;5054719;28;20434;-81
2023/01/26 09:46:05;;;;;;;20.92;7.25;;;5.90;85.90;;;;;;5054662;28;20095;-81
2023/01/26 09:48:42;;;;;;;27.35;6.55;;;6.00;85.80;;;;;;5054545;28;20435;-81
2023/01/26 09:51:18;;;;;;;20.00;5.45;;;6.00;85.80;;;;;;5054388;28;20044;-81
2023/01/26 09:53:55;;;;;;;25.45;6.40;;;6.10;85.80;;;;;;5054397;28;20045;-87
2023/01/26 09:56:28;;;;;;;25.77;5.45;;;6.20;85.80;;;;;;5037607;28;20045;-86
2023/01/26 09:59:05;;;;;;;29.15;6.35;;;6.30;85.80;;;;;;5053867;28;20079;-85
2023/01/26 10:01:52;;;;;;;27.58;4.75;;;6.40;85.90;;;;;;5037230;28;20550;-81
2023/01/26 10:04:32;;;;;;;24.27;5.15;;;6.50;86.00;;;;;;5037624;28;20043;-81
2023/01/26 10:07:00;;;;;;;25.75;5.53;;;6.50;86.10;;;;;;5054560;28;20041;-81
2023/01/26 10:09:32;;;;;;;22.83;4.35;;;6.70;86.20;;;;;;5057411;28;20137;-81
2023/01/26 10:12:01;;;;;;;19.98;4.38;;;6.70;86.20;;;;;;5057730;28;20033;-81
2023/01/26 10:14:39;;;;;;;22.88;3.95;;;6.80;86.20;;;;;;5056362;28;20059;-85
2023/01/26 10:17:13;;;;;;;23.45;4.25;;;6.90;86.40;;;;;;5043078;28;20032;-86
2023/01/26 10:19:46;;;;;;;28.58;4.40;;;7.00;86.40;;;;;;5057168;28;20041;-86
2023/01/26 10:22:39;;;;;;;25.48;5.30;;;7.00;86.30;;;;;;5057195;28;20410;-85
2023/01/26 10:25:17;;;;;;;26.30;4.43;;;7.10;86.40;;;;;;5056326;28;20045;-85
2023/01/26 10:27:44;;;;;;;23.52;5.03;;;7.20;86.30;;;;;;5061134;28;20037;-85
2023/01/26 10:30:19;;;;;;;25.25;4.65;;;7.20;86.20;;;;;;5036810;28;20049;-86
2023/01/26 10:32:46;;;;;;;;;;;7.30;86.20;;;;;;5053356;28;20045;-86
2023/01/26 10:35:21;;;;;;;24.60;3.75;;;7.30;85.90;;;;;;5069278;28;19923;-86
2023/01/26 10:37:47;;;;;;;23.05;4.55;;;7.40;86.10;;;;;;5053650;28;20107;-87
2023/01/26 10:40:13;;;;;;;19.23;4.45;;;7.50;85.90;;;;;;5036990;28;20475;-87
2023/01/26 10:42:39;;;;;;;21.80;4.88;;;7.50;85.80;;;;;;5063170;28;20083;-87
2023/01/26 10:45:27;;;;;;;26.85;4.63;;;7.60;85.90;;;;;;5056639;28;20044;-86
2023/01/26 10:48:15;;;;;;;21.02;3.70;;;7.70;85.90;;;;;;5059556;28;20045;-86
2023/01/26 10:50:41;;;;;;;30.25;4.47;;;7.80;85.90;;;;;;5036960;28;20044;-85
2023/01/26 10:53:23;;;;;;;17.35;3.58;;;7.80;85.80;;;;;;5053421;28;20618;-85
2023/01/26 10:56:00;;;;;;;23.05;3.78;;;7.90;85.80;;;;;;5037067;28;20049;-85
2023/01/26 10:58:48;;;;;;;19.25;3.88;;;7.90;85.50;;;;;;5036168;28;20037;-85
2023/01/26 11:01:17;;;;;;;18.05;4.20;;;8.00;85.30;;;;;;5035861;28;20131;-85
2023/01/26 11:04:04;;;;;;;16.08;2.92;;;8.00;85.10;;;;;;5015887;28;20515;-85
2023/01/26 11:06:30;;;;;;;21.15;4.43;;;8.10;85.00;;;;;;5017432;28;20077;-84
2023/01/26 11:09:08;;;;;;;18.65;3.72;;;8.10;84.80;;;;;;5036146;28;20098;-84
2023/01/26 11:11:34;;;;;;;22.58;4.68;;;8.20;84.50;;;;;;5036127;28;20047;-84
2023/01/26 11:14:19;;;;;;;22.92;4.43;;;8.20;84.30;;;;;;5035850;28;20135;-84
2023/01/26 11:17:06;;;;;;;20.80;3.85;;;8.20;84.10;;;;;;5021038;28;20128;-84
2023/01/26 11:19:56;;;;;;;20.65;3.40;;;8.30;84.30;;;;;;5052418;28;20045;-85
2023/01/26 11:22:47;;;;;;;17.25;3.63;;;8.30;83.60;;;;;;5052580;28;20041;-85
2023/01/26 11:25:46;;;;;;;17.20;2.90;;;8.40;83.50;;;;;;5033020;28;20427;-85
2023/01/26 11:28:32;;;;;;;20.88;3.85;;;8.40;83.30;;;;;;5035872;28;20080;-85
2023/01/26 11:31:15;;;;;;;21.90;3.42;;;8.40;83.30;;;;;;5052587;28;20044;-85
2023/01/26 11:33:58;;;;;;;23.38;3.53;;;8.50;83.30;;;;;;5036035;28;20395;-85
2023/01/26 11:37:19;;;;;;;17.02;3.67;;;8.50;83.00;;;;;;5036111;28;20509;-85
2023/01/26 11:40:16;;;;;;;14.90;3.33;;;8.50;82.30;;;;;;4986685;28;20056;-85
2023/01/26 11:42:42;;;;;;;16.83;3.53;;;8.60;82.00;;;;;;5035624;28;20033;-85
2023/01/26 11:45:26;;;;;;;14.95;2.67;;;8.60;81.40;;;;;;5035524;28;20052;-85
2023/01/26 11:47:55;;;;;;;24.08;3.63;;;8.60;80.50;;;;;;5035513;28;20068;-85
2023/01/26 11:50:44;;;;;;;15.48;3.05;;;8.60;79.80;;;;;;5052331;28;20391;-85
2023/01/26 11:53:43;;;;;;;14.45;3.83;;;8.60;79.60;;;;;;5051601;28;20048;-85
2023/01/26 11:56:15;;;;;;;15.00;3.15;;;8.60;79.70;;;;;;5035891;28;20098;-85
2023/01/26 11:58:52;;;;;;;15.85;3.95;;;8.60;79.90;;;;;;5051983;28;20037;-85
2023/01/26 12:01:28;;;;;;;16.20;3.10;;;8.60;79.80;;;;;;5035433;28;20033;-85
2023/01/26 12:04:00;;;;;;;26.23;3.28;;;8.60;79.80;;;;;;5036383;28;20120;-85
2023/01/26 12:06:35;;;;;;;16.00;3.65;;;8.60;80.00;;;;;;5019050;28;20120;-85
2023/01/26 12:09:10;;;;;;;16.90;2.90;;;8.60;79.90;;;;;;5035743;28;20166;-84
2023/01/26 12:11:53;;;;;;;15.93;2.97;;;8.60;80.00;;;;;;5051994;28;20041;-84
2023/01/26 12:14:34;;;;;;;18.85;3.58;;;8.60;79.90;;;;;;5035429;28;20053;-85
2023/01/26 12:17:34;;;;;;;13.30;2.53;;;8.60;80.00;;;;;;5035231;28;20526;-83
2023/01/26 12:20:30;;;;;;;11.65;2.35;;;8.70;79.90;;;;;;5051869;28;20056;-84
2023/01/26 12:22:58;;;;;;;13.20;2.85;;;8.70;79.90;;;;;;5035711;28;20130;-84
2023/01/26 12:25:33;;;;;;;11.70;2.60;;;8.70;79.70;;;;;;5052127;28;20041;-84
2023/01/26 12:28:23;;;;;;;11.73;2.35;;;8.70;79.10;;;;;;5052237;28;20400;-83
2023/01/26 12:31:31;;;;;;;15.43;2.25;;;8.60;78.80;;;;;;5035406;28;20045;-84
2023/01/26 12:33:58;;;;;;;14.15;3.00;;;8.70;78.60;;;;;;4998149;28;20060;-83
2023/01/26 12:36:51;;;;;;;14.82;3.47;;;8.60;78.80;;;;;;5013103;28;20053;-83
2023/01/26 12:39:23;;;;;;;16.88;2.65;;;8.70;78.30;;;;;;5015840;28;20135;-85
2023/01/26 12:42:17;;;;;;;12.32;3.42;;;8.60;78.20;;;;;;5031862;28;20041;-85
2023/01/26 12:45:00;;;;;;;13.02;2.70;;;8.70;78.20;;;;;;5015755;28;20069;-84
2023/01/26 12:47:26;;;;;;;10.10;2.65;;;8.70;78.10;;;;;;5021324;28;20059;-85
2023/01/26 12:50:23;;;;;;;12.45;2.05;;;8.70;77.60;;;;;;5035271;28;20392;-85
2023/01/26 12:53:04;;;;;;;14.32;2.45;;;8.70;76.90;;;;;;5015142;28;20077;-84
2023/01/26 12:55:54;;;;;;;12.90;2.10;;;8.70;77.00;;;;;;5015539;28;20124;-85
2023/01/26 12:58:24;;;;;;;13.60;2.30;;;8.70;77.30;;;;;;5024237;28;20056;-84
2023/01/26 13:01:04;;;;;;;16.73;2.35;;;8.70;77.60;;;;;;5038850;28;20033;-85
2023/01/26 13:03:33;;;;;;;11.10;2.05;;;8.70;77.30;;;;;;5038608;28;20073;-84
2023/01/26 13:06:09;;;;;;;9.30;2.33;;;8.70;77.10;;;;;;5055219;28;20036;-85
2023/01/26 13:08:35;;;;;;;12.90;1.90;;;8.80;77.00;;;;;;5038557;28;20484;-84
2023/01/26 13:11:06;;;;;;;13.52;2.30;;;8.70;77.00;;;;;;5055247;28;20048;-84
2023/01/26 13:13:52;;;;;;;14.43;2.17;;;8.70;77.30;;;;;;5038416;28;20067;-84
2023/01/26 13:16:17;;;;;;;18.15;3.55;;;8.70;77.00;;;;;;5039045;28;20135;-84
2023/01/26 13:18:54;;;;;;;12.80;2.25;;;8.70;77.20;;;;;;5046512;28;20515;-84
2023/01/26 13:21:38;;;;;;;11.95;2.83;;;8.70;77.10;;;;;;5047118;28;20045;-85
2023/01/26 13:24:16;;;;;;;10.07;2.30;;;8.80;77.10;;;;;;5055265;28;20037;-84
2023/01/26 13:26:58;;;;;;;11.70;1.75;;;8.70;77.20;;;;;;5038447;28;20048;-84
2023/01/26 13:29:24;;;;;;;7.63;1.17;;;8.70;77.00;;;;;;5021513;28;20037;-85
2023/01/26 13:32:12;;;;;;;10.88;1.95;;;8.70;77.10;;;;;;5038129;28;20044;-85
2023/01/26 13:34:47;;;;;;;10.85;1.30;;;8.70;76.80;;;;;;5040660;28;20534;-85
2023/01/26 13:37:52;;;;;;;11.10;2.30;;;8.70;76.60;;;;;;5048534;28;20514;-84
2023/01/26 13:40:32;;;;;;;10.10;1.70;;;8.70;76.70;;;;;;5049700;28;20455;-84
2023/01/26 13:43:24;;;;;;;7.25;1.85;;;8.70;76.80;;;;;;5049867;28;20032;-84
2023/01/26 13:45:55;;;;;;;11.93;2.30;;;8.60;76.70;;;;;;5047012;28;20052;-85